sensor_id;sensor_type;location;lat;lon;timestamp;pressure;altitude;pressure_sealevel;temperature;humidity
61014;BME280;46899;47.542;19.082;2023-04-06T00:02:10;100672.44;;;0.06;69.93
61014;BME280;46899;47.542;19.082;2023-04-06T00:05:13;100664.81;;;0.07;68.88
61014;BME280;46899;47.542;19.082;2023-04-06T00:08:15;100668.91;;;-0.04;70.83
61014;BME280;46899;47.542;19.082;2023-04-06T00:11:18;100660.37;;;-0.06;72.11
61014;BME280;46899;47.542;19.082;2023-04-06T00:14:21;100662.94;;;-0.06;73.68
61014;BME280;46899;47.542;19.082;2023-04-06T00:17:24;100662.81;;;-0.15;73.28
61014;BME280;46899;47.542;19.082;2023-04-06T00:20:26;100666.22;;;-0.15;74.59
61014;BME280;46899;47.542;19.082;2023-04-06T00:23:29;100656.06;;;-0.10;74.05
61014;BME280;46899;47.542;19.082;2023-04-06T00:26:31;100653.47;;;-0.13;74.06
61014;BME280;46899;47.542;19.082;2023-04-06T00:29:35;100662.72;;;-0.21;74.50
61014;BME280;46899;47.542;19.082;2023-04-06T00:32:37;100659.16;;;-0.32;75.57
61014;BME280;46899;47.542;19.082;2023-04-06T00:35:40;100648.84;;;-0.40;76.20
61014;BME280;46899;47.542;19.082;2023-04-06T00:38:42;100646.19;;;-0.46;76.64
61014;BME280;46899;47.542;19.082;2023-04-06T00:41:46;100648.62;;;-0.55;76.51
61014;BME280;46899;47.542;19.082;2023-04-06T00:44:54;100651.94;;;-0.62;77.50
61014;BME280;46899;47.542;19.082;2023-04-06T00:47:57;100646.97;;;-0.51;77.14
61014;BME280;46899;47.542;19.082;2023-04-06T00:51:00;100640.16;;;-0.51;76.89
61014;BME280;46899;47.542;19.082;2023-04-06T00:54:03;100644.47;;;-0.47;76.86
61014;BME280;46899;47.542;19.082;2023-04-06T00:57:05;100639.59;;;-0.32;76.22
61014;BME280;46899;47.542;19.082;2023-04-06T01:00:09;100644.56;;;-0.41;76.33
61014;BME280;46899;47.542;19.082;2023-04-06T01:03:12;100642.19;;;-0.27;74.60
61014;BME280;46899;47.542;19.082;2023-04-06T01:06:16;100648.97;;;-0.31;74.46
61014;BME280;46899;47.542;19.082;2023-04-06T01:09:20;100651.53;;;-0.31;73.26
61014;BME280;46899;47.542;19.082;2023-04-06T01:12:24;100649.94;;;-0.23;72.58
61014;BME280;46899;47.542;19.082;2023-04-06T01:15:28;100646.56;;;-0.19;71.79
61014;BME280;46899;47.542;19.082;2023-04-06T01:18:32;100647.34;;;-0.24;72.39
61014;BME280;46899;47.542;19.082;2023-04-06T01:21:36;100649.88;;;-0.27;72.20
61014;BME280;46899;47.542;19.082;2023-04-06T01:24:40;100651.50;;;-0.34;72.27
61014;BME280;46899;47.542;19.082;2023-04-06T01:27:43;100649.75;;;-0.38;72.48
61014;BME280;46899;47.542;19.082;2023-04-06T01:30:50;100651.31;;;-0.47;73.06
61014;BME280;46899;47.542;19.082;2023-04-06T01:33:54;100644.22;;;-0.65;74.59
61014;BME280;46899;47.542;19.082;2023-04-06T01:36:57;100650.94;;;-0.73;75.34
61014;BME280;46899;47.542;19.082;2023-04-06T01:40:00;100637.13;;;-0.84;76.75
61014;BME280;46899;47.542;19.082;2023-04-06T01:43:05;100642.12;;;-0.90;77.50
61014;BME280;46899;47.542;19.082;2023-04-06T01:46:09;100647.94;;;-0.99;78.24
61014;BME280;46899;47.542;19.082;2023-04-06T01:49:13;100650.41;;;-1.06;78.61
61014;BME280;46899;47.542;19.082;2023-04-06T01:52:15;100645.09;;;-1.15;79.19
61014;BME280;46899;47.542;19.082;2023-04-06T01:55:19;100637.37;;;-1.21;79.47
61014;BME280;46899;47.542;19.082;2023-04-06T01:58:23;100636.41;;;-1.26;79.75
61014;BME280;46899;47.542;19.082;2023-04-06T02:01:26;100635.62;;;-1.22;79.83
61014;BME280;46899;47.542;19.082;2023-04-06T02:04:29;100636.50;;;-1.23;80.27
61014;BME280;46899;47.542;19.082;2023-04-06T02:07:32;100637.34;;;-1.23;80.44
61014;BME280;46899;47.542;19.082;2023-04-06T02:10:35;100636.84;;;-1.02;78.59
61014;BME280;46899;47.542;19.082;2023-04-06T02:13:38;100627.69;;;-0.88;77.11
61014;BME280;46899;47.542;19.082;2023-04-06T02:16:41;100631.88;;;-0.93;76.15
61014;BME280;46899;47.542;19.082;2023-04-06T02:19:44;100625.94;;;-0.91;76.00
61014;BME280;46899;47.542;19.082;2023-04-06T02:22:47;100619.94;;;-0.94;76.00
61014;BME280;46899;47.542;19.082;2023-04-06T02:25:49;100619.09;;;-0.93;75.48
61014;BME280;46899;47.542;19.082;2023-04-06T02:28:52;100620.91;;;-0.88;74.79
61014;BME280;46899;47.542;19.082;2023-04-06T02:31:55;100609.63;;;-1.00;75.55
61014;BME280;46899;47.542;19.082;2023-04-06T02:34:58;100611.38;;;-0.99;75.41
61014;BME280;46899;47.542;19.082;2023-04-06T02:38:01;100613.84;;;-1.02;74.87
61014;BME280;46899;47.542;19.082;2023-04-06T02:41:04;100607.06;;;-1.02;74.79
61014;BME280;46899;47.542;19.082;2023-04-06T02:44:07;100617.16;;;-1.08;75.32
61014;BME280;46899;47.542;19.082;2023-04-06T02:47:11;100615.47;;;-1.07;75.64
61014;BME280;46899;47.542;19.082;2023-04-06T02:50:14;100606.34;;;-0.93;74.43
61014;BME280;46899;47.542;19.082;2023-04-06T02:53:18;100610.66;;;-0.89;nan
61014;BME280;46899;47.542;19.082;2023-04-06T02:56:21;100610.63;;;-0.91;74.22
61014;BME280;46899;47.542;19.082;2023-04-06T02:59:24;100607.16;;;-0.96;73.99
61014;BME280;46899;47.542;19.082;2023-04-06T03:02:29;100607.88;;;-1.04;74.53
61014;BME280;46899;47.542;19.082;2023-04-06T03:05:35;100602.78;;;-1.03;74.87
61014;BME280;46899;47.542;19.082;2023-04-06T03:08:39;100602.66;;;-1.10;75.00
61014;BME280;46899;47.542;19.082;2023-04-06T03:11:42;100599.28;;;-1.08;75.03
61014;BME280;46899;47.542;19.082;2023-04-06T03:14:45;100602.84;;;-1.00;74.46
61014;BME280;46899;47.542;19.082;2023-04-06T03:17:47;100604.44;;;-1.06;75.10
61014;BME280;46899;47.542;19.082;2023-04-06T03:20:51;100603.37;;;-1.17;75.55
61014;BME280;46899;47.542;19.082;2023-04-06T03:23:57;100600.69;;;-1.28;75.57
61014;BME280;46899;47.542;19.082;2023-04-06T03:27:01;100599.81;;;-1.28;75.42
61014;BME280;46899;47.542;19.082;2023-04-06T03:30:04;100602.28;;;-1.34;76.24
61014;BME280;46899;47.542;19.082;2023-04-06T03:33:10;100607.34;;;-1.36;77.55
61014;BME280;46899;47.542;19.082;2023-04-06T03:36:14;100602.22;;;-1.37;78.45
61014;BME280;46899;47.542;19.082;2023-04-06T03:39:17;100609.00;;;-1.40;79.80
61014;BME280;46899;47.542;19.082;2023-04-06T03:42:20;100605.50;;;-1.43;79.89
61014;BME280;46899;47.542;19.082;2023-04-06T03:45:23;100601.19;;;-1.47;80.91
61014;BME280;46899;47.542;19.082;2023-04-06T03:48:26;100598.56;;;-1.53;81.47
61014;BME280;46899;47.542;19.082;2023-04-06T03:51:28;100595.06;;;-1.58;81.92
61014;BME280;46899;47.542;19.082;2023-04-06T03:54:31;100596.75;;;-1.59;83.08
61014;BME280;46899;47.542;19.082;2023-04-06T03:57:34;100601.06;;;-1.56;84.12
61014;BME280;46899;47.542;19.082;2023-04-06T04:00:37;100603.63;;;-1.55;85.84
61014;BME280;46899;47.542;19.082;2023-04-06T04:03:39;100589.91;;;-1.60;86.37
61014;BME280;46899;47.542;19.082;2023-04-06T04:06:42;100601.00;;;-1.58;86.49
61014;BME280;46899;47.542;19.082;2023-04-06T04:09:45;100595.97;;;-1.55;86.59
61014;BME280;46899;47.542;19.082;2023-04-06T04:12:47;100592.47;;;-1.60;87.05
61014;BME280;46899;47.542;19.082;2023-04-06T04:15:49;100588.22;;;-1.61;87.15
61014;BME280;46899;47.542;19.082;2023-04-06T04:18:52;100591.59;;;-1.62;88.01
61014;BME280;46899;47.542;19.082;2023-04-06T04:21:55;100580.56;;;-1.61;88.23
61014;BME280;46899;47.542;19.082;2023-04-06T04:24:59;100580.59;;;-1.59;87.63
61014;BME280;46899;47.542;19.082;2023-04-06T04:28:03;100586.59;;;-1.56;87.42
61014;BME280;46899;47.542;19.082;2023-04-06T04:31:07;100585.81;;;-1.52;87.17
61014;BME280;46899;47.542;19.082;2023-04-06T04:34:10;100590.28;;;-1.39;86.58
61014;BME280;46899;47.542;19.082;2023-04-06T04:37:13;100590.47;;;-1.28;85.34
61014;BME280;46899;47.542;19.082;2023-04-06T04:40:18;100583.97;;;-1.08;83.40
61014;BME280;46899;47.542;19.082;2023-04-06T04:43:21;100576.53;;;-0.94;81.16
61014;BME280;46899;47.542;19.082;2023-04-06T04:46:24;100574.31;;;-0.73;79.74
61014;BME280;46899;47.542;19.082;2023-04-06T04:49:27;100572.03;;;-0.50;75.90
61014;BME280;46899;47.542;19.082;2023-04-06T04:52:30;100573.06;;;-0.35;74.56
61014;BME280;46899;47.542;19.082;2023-04-06T04:55:34;100572.41;;;-0.22;73.73
61014;BME280;46899;47.542;19.082;2023-04-06T04:58:37;100582.87;;;-0.01;70.99
61014;BME280;46899;47.542;19.082;2023-04-06T05:01:39;100587.22;;;0.10;69.20
61014;BME280;46899;47.542;19.082;2023-04-06T05:04:57;100586.56;;;0.26;68.60
61014;BME280;46899;47.542;19.082;2023-04-06T05:07:59;100580.72;;;0.37;67.29
61014;BME280;46899;47.542;19.082;2023-04-06T05:11:03;100574.94;;;0.58;66.88
61014;BME280;46899;47.542;19.082;2023-04-06T05:14:07;100571.56;;;0.65;65.94
61014;BME280;46899;47.542;19.082;2023-04-06T05:17:12;100568.16;;;0.64;65.22
61014;BME280;46899;47.542;19.082;2023-04-06T05:20:16;100555.47;;;0.83;65.13
61014;BME280;46899;47.542;19.082;2023-04-06T05:23:19;100550.47;;;0.93;64.44
61014;BME280;46899;47.542;19.082;2023-04-06T05:26:23;100537.75;;;1.11;63.38
61014;BME280;46899;47.542;19.082;2023-04-06T05:29:27;100541.28;;;1.30;62.68
61014;BME280;46899;47.542;19.082;2023-04-06T05:32:30;100544.81;;;1.50;61.47
61014;BME280;46899;47.542;19.082;2023-04-06T05:35:34;100544.03;;;1.71;60.60
61014;BME280;46899;47.542;19.082;2023-04-06T05:38:39;100539.78;;;1.76;59.44
61014;BME280;46899;47.542;19.082;2023-04-06T05:41:43;100533.91;;;2.16;58.37
61014;BME280;46899;47.542;19.082;2023-04-06T05:44:46;100539.09;;;2.75;56.75
61014;BME280;46899;47.542;19.082;2023-04-06T05:47:49;100533.88;;;3.22;54.85
61014;BME280;46899;47.542;19.082;2023-04-06T05:50:54;100533.00;;;3.23;53.80
61014;BME280;46899;47.542;19.082;2023-04-06T05:53:58;100522.72;;;3.18;54.78
61014;BME280;46899;47.542;19.082;2023-04-06T05:57:02;100523.62;;;3.10;54.00
61014;BME280;46899;47.542;19.082;2023-04-06T06:00:06;100521.87;;;3.21;53.94
61014;BME280;46899;47.542;19.082;2023-04-06T06:03:14;100522.75;;;3.12;53.94
61014;BME280;46899;47.542;19.082;2023-04-06T06:06:20;100521.03;;;3.22;53.45
61014;BME280;46899;47.542;19.082;2023-04-06T06:09:23;100521.56;;;3.96;52.19
61014;BME280;46899;47.542;19.082;2023-04-06T06:12:27;100509.38;;;4.23;50.92
61014;BME280;46899;47.542;19.082;2023-04-06T06:15:30;100513.00;;;5.02;49.06
61014;BME280;46899;47.542;19.082;2023-04-06T06:18:33;100518.25;;;5.68;46.94
61014;BME280;46899;47.542;19.082;2023-04-06T06:21:35;100519.72;;;5.93;45.55
61014;BME280;46899;47.542;19.082;2023-04-06T06:24:38;100517.94;;;5.96;44.80
61014;BME280;46899;47.542;19.082;2023-04-06T06:27:42;100510.16;;;5.99;44.80
61014;BME280;46899;47.542;19.082;2023-04-06T06:30:45;100503.16;;;6.06;44.78
61014;BME280;46899;47.542;19.082;2023-04-06T06:33:51;100498.88;;;6.03;44.79
61014;BME280;46899;47.542;19.082;2023-04-06T06:36:54;100499.06;;;6.49;43.33
61014;BME280;46899;47.542;19.082;2023-04-06T06:39:58;100489.41;;;6.60;43.24
61014;BME280;46899;47.542;19.082;2023-04-06T06:43:01;100495.88;;;6.84;42.52
61014;BME280;46899;47.542;19.082;2023-04-06T06:46:05;100492.06;;;6.56;42.19
61014;BME280;46899;47.542;19.082;2023-04-06T06:49:08;100485.91;;;6.09;42.59
61014;BME280;46899;47.542;19.082;2023-04-06T06:52:11;100486.91;;;5.99;43.44
61014;BME280;46899;47.542;19.082;2023-04-06T06:55:13;100486.81;;;6.07;42.74
61014;BME280;46899;47.542;19.082;2023-04-06T06:58:17;100489.34;;;6.08;43.11
61014;BME280;46899;47.542;19.082;2023-04-06T07:01:21;100484.31;;;5.99;42.56
61014;BME280;46899;47.542;19.082;2023-04-06T07:04:24;100497.34;;;5.92;43.19
61014;BME280;46899;47.542;19.082;2023-04-06T07:07:27;100487.72;;;6.58;42.19
61014;BME280;46899;47.542;19.082;2023-04-06T07:10:29;100486.66;;;7.17;40.65
61014;BME280;46899;47.542;19.082;2023-04-06T07:13:32;100487.06;;;7.81;39.63
61014;BME280;46899;47.542;19.082;2023-04-06T07:16:35;100487.25;;;7.72;38.52
61014;BME280;46899;47.542;19.082;2023-04-06T07:19:38;100485.13;;;7.91;38.75
61014;BME280;46899;47.542;19.082;2023-04-06T07:22:42;100483.72;;;8.14;37.88
61014;BME280;46899;47.542;19.082;2023-04-06T07:25:46;100481.34;;;9.10;36.51
61014;BME280;46899;47.542;19.082;2023-04-06T07:28:48;100480.38;;;9.74;34.64
61014;BME280;46899;47.542;19.082;2023-04-06T07:31:52;100476.53;;;10.68;33.31
61014;BME280;46899;47.542;19.082;2023-04-06T07:34:55;100476.06;;;11.54;30.89
61014;BME280;46899;47.542;19.082;2023-04-06T07:37:59;100475.56;;;11.45;31.11
61014;BME280;46899;47.542;19.082;2023-04-06T07:41:02;100477.56;;;10.09;33.14
61014;BME280;46899;47.542;19.082;2023-04-06T07:44:07;100468.66;;;8.99;34.71
61014;BME280;46899;47.542;19.082;2023-04-06T07:47:10;100466.09;;;9.30;35.38
61014;BME280;46899;47.542;19.082;2023-04-06T07:50:13;100467.03;;;9.26;35.25
61014;BME280;46899;47.542;19.082;2023-04-06T07:53:15;100472.31;;;9.83;34.21
61014;BME280;46899;47.542;19.082;2023-04-06T07:56:18;100471.44;;;9.82;34.25
61014;BME280;46899;47.542;19.082;2023-04-06T07:59:21;100462.97;;;9.48;34.29
61014;BME280;46899;47.542;19.082;2023-04-06T08:02:24;100463.78;;;9.19;35.12
61014;BME280;46899;47.542;19.082;2023-04-06T08:05:27;100458.03;;;8.76;35.39
61014;BME280;46899;47.542;19.082;2023-04-06T08:08:29;100463.94;;;8.81;35.67
61014;BME280;46899;47.542;19.082;2023-04-06T08:11:34;100461.38;;;8.46;36.14
61014;BME280;46899;47.542;19.082;2023-04-06T08:14:37;100457.06;;;8.09;37.02
61014;BME280;46899;47.542;19.082;2023-04-06T08:17:39;100453.94;;;7.94;37.20
61014;BME280;46899;47.542;19.082;2023-04-06T08:20:43;100457.34;;;7.97;37.10
61014;BME280;46899;47.542;19.082;2023-04-06T08:23:46;100455.34;;;8.08;36.95
61014;BME280;46899;47.542;19.082;2023-04-06T08:26:49;100437.47;;;7.96;37.64
61014;BME280;46899;47.542;19.082;2023-04-06T08:29:53;100438.94;;;7.71;38.15
61014;BME280;46899;47.542;19.082;2023-04-06T08:32:56;100446.69;;;8.09;37.94
61014;BME280;46899;47.542;19.082;2023-04-06T08:35:59;100440.63;;;8.46;37.26
61014;BME280;46899;47.542;19.082;2023-04-06T08:39:01;100439.06;;;9.06;35.71
61014;BME280;46899;47.542;19.082;2023-04-06T08:42:04;100433.00;;;9.06;35.50
61014;BME280;46899;47.542;19.082;2023-04-06T08:45:08;100430.66;;;9.56;34.42
61014;BME280;46899;47.542;19.082;2023-04-06T08:48:11;100425.47;;;9.56;33.89
61014;BME280;46899;47.542;19.082;2023-04-06T08:51:14;100432.63;;;10.05;33.35
61014;BME280;46899;47.542;19.082;2023-04-06T08:54:19;100436.28;;;10.27;33.51
61014;BME280;46899;47.542;19.082;2023-04-06T08:57:22;100433.87;;;10.21;31.87
61014;BME280;46899;47.542;19.082;2023-04-06T09:00:25;100433.91;;;10.20;31.26
61014;BME280;46899;47.542;19.082;2023-04-06T09:03:28;100427.34;;;9.81;31.93
61014;BME280;46899;47.542;19.082;2023-04-06T09:06:32;100438.91;;;9.41;31.76
61014;BME280;46899;47.542;19.082;2023-04-06T09:09:34;100434.53;;;9.43;32.39
61014;BME280;46899;47.542;19.082;2023-04-06T09:12:37;100430.56;;;9.30;32.59
61014;BME280;46899;47.542;19.082;2023-04-06T09:15:42;100422.03;;;9.56;32.39
61014;BME280;46899;47.542;19.082;2023-04-06T09:18:45;100418.16;;;9.41;32.34
61014;BME280;46899;47.542;19.082;2023-04-06T09:21:47;100421.44;;;9.17;32.29
61014;BME280;46899;47.542;19.082;2023-04-06T09:24:51;100420.03;;;9.36;32.33
61014;BME280;46899;47.542;19.082;2023-04-06T09:28:01;100410.28;;;10.00;31.95
61014;BME280;46899;47.542;19.082;2023-04-06T09:31:05;100416.34;;;9.73;31.90
61014;BME280;46899;47.542;19.082;2023-04-06T09:34:08;100414.28;;;9.25;32.08
61014;BME280;46899;47.542;19.082;2023-04-06T09:37:18;100412.50;;;9.27;32.32
61014;BME280;46899;47.542;19.082;2023-04-06T09:40:20;100411.41;;;9.63;32.79
61014;BME280;46899;47.542;19.082;2023-04-06T09:43:25;100413.09;;;9.37;32.78
61014;BME280;46899;47.542;19.082;2023-04-06T09:46:29;100413.13;;;9.64;32.33
61014;BME280;46899;47.542;19.082;2023-04-06T09:49:41;100409.53;;;9.69;31.99
61014;BME280;46899;47.542;19.082;2023-04-06T09:52:49;100408.62;;;9.70;32.13
61014;BME280;46899;47.542;19.082;2023-04-06T09:55:52;100400.41;;;9.55;32.26
61014;BME280;46899;47.542;19.082;2023-04-06T09:59:02;100398.88;;;9.48;32.36
61014;BME280;46899;47.542;19.082;2023-04-06T10:02:08;100396.22;;;9.51;31.97
61014;BME280;46899;47.542;19.082;2023-04-06T10:08:24;100384.06;;;10.06;31.90
61014;BME280;46899;47.542;19.082;2023-04-06T10:11:34;100383.22;;;10.33;31.61
61014;BME280;46899;47.542;19.082;2023-04-06T10:14:36;100382.41;;;10.57;30.80
61014;BME280;46899;47.542;19.082;2023-04-06T10:17:39;100375.19;;;10.88;30.61
61014;BME280;46899;47.542;19.082;2023-04-06T10:20:56;100367.06;;;10.48;31.03
61014;BME280;46899;47.542;19.082;2023-04-06T10:24:01;100375.69;;;9.98;31.65
61014;BME280;46899;47.542;19.082;2023-04-06T10:27:04;100375.03;;;10.44;30.98
61014;BME280;46899;47.542;19.082;2023-04-06T10:30:08;100361.31;;;10.40;30.56
61014;BME280;46899;47.542;19.082;2023-04-06T10:33:13;100358.31;;;10.26;31.01
61014;BME280;46899;47.542;19.082;2023-04-06T10:36:24;100353.56;;;10.86;30.32
61014;BME280;46899;47.542;19.082;2023-04-06T10:39:27;100352.56;;;10.90;30.57
61014;BME280;46899;47.542;19.082;2023-04-06T10:42:37;100361.34;;;10.63;30.54
61014;BME280;46899;47.542;19.082;2023-04-06T10:45:40;100356.03;;;10.42;30.77
61014;BME280;46899;47.542;19.082;2023-04-06T10:48:44;100355.19;;;10.66;30.46
61014;BME280;46899;47.542;19.082;2023-04-06T10:51:51;100350.25;;;10.58;30.31
61014;BME280;46899;47.542;19.082;2023-04-06T10:54:54;100349.03;;;10.68;29.88
61014;BME280;46899;47.542;19.082;2023-04-06T10:57:58;100344.16;;;10.59;30.29
61014;BME280;46899;47.542;19.082;2023-04-06T11:01:01;100341.59;;;10.33;30.15
61014;BME280;46899;47.542;19.082;2023-04-06T11:04:04;100338.84;;;10.38;30.14
61014;BME280;46899;47.542;19.082;2023-04-06T11:07:07;100338.28;;;10.77;29.00
61014;BME280;46899;47.542;19.082;2023-04-06T11:10:10;100332.06;;;11.05;28.97
61014;BME280;46899;47.542;19.082;2023-04-06T11:13:20;100331.09;;;11.07;29.24
61014;BME280;46899;47.542;19.082;2023-04-06T11:16:27;100340.38;;;10.68;29.30
61014;BME280;46899;47.542;19.082;2023-04-06T11:19:31;100334.03;;;10.99;28.90
61014;BME280;46899;47.542;19.082;2023-04-06T11:22:33;100323.38;;;10.82;28.53
61014;BME280;46899;47.542;19.082;2023-04-06T11:25:36;100324.44;;;10.77;28.48
61014;BME280;46899;47.542;19.082;2023-04-06T11:28:39;100323.59;;;11.23;28.76
61014;BME280;46899;47.542;19.082;2023-04-06T11:31:44;100317.91;;;11.12;29.05
61014;BME280;46899;47.542;19.082;2023-04-06T11:34:47;100322.00;;;10.72;29.24
61014;BME280;46899;47.542;19.082;2023-04-06T11:37:50;100311.69;;;11.60;28.23
61014;BME280;46899;47.542;19.082;2023-04-06T11:40:53;100308.84;;;12.08;27.03
61014;BME280;46899;47.542;19.082;2023-04-06T11:44:03;100310.88;;;12.02;27.01
61014;BME280;46899;47.542;19.082;2023-04-06T11:47:06;100309.00;;;12.05;26.81
61014;BME280;46899;47.542;19.082;2023-04-06T11:50:10;100300.41;;;11.82;27.31
61014;BME280;46899;47.542;19.082;2023-04-06T11:53:13;100303.66;;;10.98;29.10
61014;BME280;46899;47.542;19.082;2023-04-06T11:56:23;100297.19;;;10.62;29.25
61014;BME280;46899;47.542;19.082;2023-04-06T11:59:25;100302.59;;;10.33;29.93
61014;BME280;46899;47.542;19.082;2023-04-06T12:02:29;100296.06;;;9.69;30.09
61014;BME280;46899;47.542;19.082;2023-04-06T12:05:34;100294.72;;;9.84;30.02
61014;BME280;46899;47.542;19.082;2023-04-06T12:08:37;100293.12;;;9.80;30.06
61014;BME280;46899;47.542;19.082;2023-04-06T12:11:40;100288.88;;;9.51;30.42
61014;BME280;46899;47.542;19.082;2023-04-06T12:14:43;100295.50;;;9.59;31.13
61014;BME280;46899;47.542;19.082;2023-04-06T12:17:45;100292.19;;;9.54;30.29
61014;BME280;46899;47.542;19.082;2023-04-06T12:20:48;100300.66;;;9.87;29.87
61014;BME280;46899;47.542;19.082;2023-04-06T12:23:51;100290.41;;;10.09;29.77
61014;BME280;46899;47.542;19.082;2023-04-06T12:26:54;100295.41;;;10.64;29.08
61014;BME280;46899;47.542;19.082;2023-04-06T12:30:12;100278.19;;;11.28;28.69
61014;BME280;46899;47.542;19.082;2023-04-06T12:33:14;100285.34;;;11.68;27.82
61014;BME280;46899;47.542;19.082;2023-04-06T12:36:18;100290.69;;;11.85;27.88
61014;BME280;46899;47.542;19.082;2023-04-06T12:39:21;100282.22;;;11.58;27.70
61014;BME280;46899;47.542;19.082;2023-04-06T12:42:24;100278.84;;;11.35;28.17
61014;BME280;46899;47.542;19.082;2023-04-06T12:45:32;100273.09;;;11.04;28.63
61014;BME280;46899;47.542;19.082;2023-04-06T12:48:37;100276.00;;;10.25;29.87
61014;BME280;46899;47.542;19.082;2023-04-06T12:51:40;100281.03;;;10.54;30.25
61014;BME280;46899;47.542;19.082;2023-04-06T12:54:43;100272.81;;;10.65;30.36
61014;BME280;46899;47.542;19.082;2023-04-06T12:57:45;100270.69;;;10.99;30.17
61014;BME280;46899;47.542;19.082;2023-04-06T13:00:50;100262.66;;;10.82;30.35
61014;BME280;46899;47.542;19.082;2023-04-06T13:03:52;100269.38;;;11.11;30.19
61014;BME280;46899;47.542;19.082;2023-04-06T13:06:55;100277.72;;;10.74;31.14
61014;BME280;46899;47.542;19.082;2023-04-06T13:09:57;100273.91;;;10.82;30.88
61014;BME280;46899;47.542;19.082;2023-04-06T13:13:00;100276.19;;;10.68;31.17
61014;BME280;46899;47.542;19.082;2023-04-06T13:16:04;100271.28;;;10.36;31.28
61014;BME280;46899;47.542;19.082;2023-04-06T13:19:08;100277.72;;;10.26;32.09
61014;BME280;46899;47.542;19.082;2023-04-06T13:22:10;100271.81;;;10.46;31.89
61014;BME280;46899;47.542;19.082;2023-04-06T13:25:13;100259.62;;;10.46;31.88
61014;BME280;46899;47.542;19.082;2023-04-06T13:28:15;100264.41;;;10.58;32.00
61014;BME280;46899;47.542;19.082;2023-04-06T13:31:18;100272.94;;;10.14;32.92
61014;BME280;46899;47.542;19.082;2023-04-06T13:34:21;100270.81;;;9.99;33.31
61014;BME280;46899;47.542;19.082;2023-04-06T13:37:23;100255.50;;;9.91;34.44
61014;BME280;46899;47.542;19.082;2023-04-06T13:40:26;100261.34;;;10.22;34.55
61014;BME280;46899;47.542;19.082;2023-04-06T13:43:29;100269.84;;;10.52;33.81
61014;BME280;46899;47.542;19.082;2023-04-06T13:46:31;100257.22;;;10.17;34.93
61014;BME280;46899;47.542;19.082;2023-04-06T13:49:34;100252.34;;;10.32;35.03
61014;BME280;46899;47.542;19.082;2023-04-06T13:52:37;100252.41;;;10.05;35.75
61014;BME280;46899;47.542;19.082;2023-04-06T13:55:40;100244.03;;;9.97;34.44
61014;BME280;46899;47.542;19.082;2023-04-06T13:58:43;100243.59;;;9.84;34.71
61014;BME280;46899;47.542;19.082;2023-04-06T14:01:46;100241.25;;;9.77;34.71
61014;BME280;46899;47.542;19.082;2023-04-06T14:04:49;100247.13;;;10.08;33.93
61014;BME280;46899;47.542;19.082;2023-04-06T14:07:52;100245.88;;;10.19;33.45
61014;BME280;46899;47.542;19.082;2023-04-06T14:10:55;100239.78;;;9.94;33.14
61014;BME280;46899;47.542;19.082;2023-04-06T14:13:59;100240.00;;;9.88;33.95
61014;BME280;46899;47.542;19.082;2023-04-06T14:17:01;100250.84;;;9.75;34.28
61014;BME280;46899;47.542;19.082;2023-04-06T14:20:05;100241.56;;;9.68;34.99
61014;BME280;46899;47.542;19.082;2023-04-06T14:23:08;100240.41;;;9.76;33.90
61014;BME280;46899;47.542;19.082;2023-04-06T14:26:11;100244.75;;;9.76;34.71
61014;BME280;46899;47.542;19.082;2023-04-06T14:29:15;100252.06;;;9.89;34.54
61014;BME280;46899;47.542;19.082;2023-04-06T14:32:19;100239.38;;;9.82;34.88
61014;BME280;46899;47.542;19.082;2023-04-06T14:35:22;100240.72;;;9.92;34.36
61014;BME280;46899;47.542;19.082;2023-04-06T14:38:24;100246.63;;;9.71;34.90
61014;BME280;46899;47.542;19.082;2023-04-06T14:41:27;100249.91;;;9.51;35.82
61014;BME280;46899;47.542;19.082;2023-04-06T14:44:29;100253.41;;;9.22;37.41
61014;BME280;46899;47.542;19.082;2023-04-06T14:47:35;100262.00;;;8.97;38.81
61014;BME280;46899;47.542;19.082;2023-04-06T14:50:38;100268.69;;;8.74;39.68
61014;BME280;46899;47.542;19.082;2023-04-06T14:53:42;100270.97;;;8.56;40.58
61014;BME280;46899;47.542;19.082;2023-04-06T14:56:44;100265.62;;;8.62;41.49
61014;BME280;46899;47.542;19.082;2023-04-06T14:59:47;100273.28;;;8.66;40.89
61014;BME280;46899;47.542;19.082;2023-04-06T15:02:49;100277.87;;;8.57;41.59
61014;BME280;46899;47.542;19.082;2023-04-06T15:05:52;100276.09;;;8.25;44.34
61014;BME280;46899;47.542;19.082;2023-04-06T15:08:55;100287.63;;;7.81;47.75
61014;BME280;46899;47.542;19.082;2023-04-06T15:11:57;100281.31;;;7.57;49.56
61014;BME280;46899;47.542;19.082;2023-04-06T15:15:00;100286.69;;;7.48;50.41
61014;BME280;46899;47.542;19.082;2023-04-06T15:18:03;100274.91;;;7.37;51.31
61014;BME280;46899;47.542;19.082;2023-04-06T15:21:06;100289.81;;;7.26;51.74
61014;BME280;46899;47.542;19.082;2023-04-06T15:24:09;100284.91;;;7.14;53.63
61014;BME280;46899;47.542;19.082;2023-04-06T15:27:11;100287.03;;;6.97;54.38
61014;BME280;46899;47.542;19.082;2023-04-06T15:30:14;100295.09;;;6.81;55.11
61014;BME280;46899;47.542;19.082;2023-04-06T15:33:19;100284.84;;;6.77;55.62
61014;BME280;46899;47.542;19.082;2023-04-06T15:36:23;100292.50;;;6.81;56.25
61014;BME280;46899;47.542;19.082;2023-04-06T15:39:30;100297.72;;;6.78;56.78
61014;BME280;46899;47.542;19.082;2023-04-06T15:42:33;100291.87;;;6.70;57.34
61014;BME280;46899;47.542;19.082;2023-04-06T15:45:36;100288.25;;;6.79;57.15
61014;BME280;46899;47.542;19.082;2023-04-06T15:48:39;100289.47;;;6.61;57.28
61014;BME280;46899;47.542;19.082;2023-04-06T15:51:43;100293.66;;;6.68;56.81
61014;BME280;46899;47.542;19.082;2023-04-06T15:54:46;100294.13;;;6.85;56.55
61014;BME280;46899;47.542;19.082;2023-04-06T15:57:48;100290.81;;;6.80;56.45